sensor_id;sensor_type;location;lat;lon;timestamp;pressure;altitude;pressure_sealevel;temperature;humidity
53940;BME280;39850;43.324;21.916;2023-06-10T00:00:29;987.0;;;20.0;76.0
53940;BME280;39850;43.324;21.916;2023-06-10T00:05:07;987.0;;;20.0;76.0
53940;BME280;39850;43.324;21.916;2023-06-10T00:37:26;987.0;;;19.8;76.0
53940;BME280;39850;43.324;21.916;2023-06-10T00:42:07;987.0;;;19.8;76.0
53940;BME280;39850;43.324;21.916;2023-06-10T00:46:46;987.0;;;19.8;76.0
53940;BME280;39850;43.324;21.916;2023-06-10T00:51:24;987.0;;;19.8;76.0
53940;BME280;39850;43.324;21.916;2023-06-10T00:56:01;987.0;;;19.8;76.0
53940;BME280;39850;43.324;21.916;2023-06-10T01:00:38;987.0;;;19.8;76.0
53940;BME280;39850;43.324;21.916;2023-06-10T01:05:15;987.0;;;19.8;76.0
53940;BME280;39850;43.324;21.916;2023-06-10T01:57:29;987.0;;;19.6;79.0
53940;BME280;39850;43.324;21.916;2023-06-10T02:02:06;987.0;;;19.6;79.0
53940;BME280;39850;43.324;21.916;2023-06-10T02:06:43;987.0;;;19.4;79.0
53940;BME280;39850;43.324;21.916;2023-06-10T02:11:19;987.0;;;19.4;79.0
53940;BME280;39850;43.324;21.916;2023-06-10T02:15:55;987.0;;;19.4;79.0
53940;BME280;39850;43.324;21.916;2023-06-10T02:20:32;987.0;;;19.1;79.0
53940;BME280;39850;43.324;21.916;2023-06-10T02:25:10;987.0;;;19.1;79.0
53940;BME280;39850;43.324;21.916;2023-06-10T02:29:46;987.0;;;19.0;80.0
53940;BME280;39850;43.324;21.916;2023-06-10T02:34:23;987.0;;;19.0;80.0
53940;BME280;39850;43.324;21.916;2023-06-10T02:38:59;987.0;;;18.9;81.0
53940;BME280;39850;43.324;21.916;2023-06-10T02:43:36;987.0;;;18.9;81.0
53940;BME280;39850;43.324;21.916;2023-06-10T03:20:30;987.0;;;19.7;82.0
53940;BME280;39850;43.324;21.916;2023-06-10T03:25:09;987.0;;;19.7;82.0
53940;BME280;39850;43.324;21.916;2023-06-10T03:29:46;987.0;;;19.8;82.0
53940;BME280;39850;43.324;21.916;2023-06-10T03:34:22;987.0;;;19.8;82.0
53940;BME280;39850;43.324;21.916;2023-06-10T03:38:59;987.0;;;19.7;82.0
53940;BME280;39850;43.324;21.916;2023-06-10T03:43:38;987.0;;;19.7;82.0
53940;BME280;39850;43.324;21.916;2023-06-10T03:48:15;987.0;;;19.8;82.0
53940;BME280;39850;43.324;21.916;2023-06-10T03:52:52;987.0;;;19.8;82.0
53940;BME280;39850;43.324;21.916;2023-06-10T03:57:29;987.0;;;19.5;82.0
53940;BME280;39850;43.324;21.916;2023-06-10T04:02:06;987.0;;;19.5;82.0
53940;BME280;39850;43.324;21.916;2023-06-10T04:06:43;987.0;;;19.5;82.0
53940;BME280;39850;43.324;21.916;2023-06-10T04:39:00;987.0;;;20.0;82.0
53940;BME280;39850;43.324;21.916;2023-06-10T04:43:38;987.0;;;20.0;82.0
53940;BME280;39850;43.324;21.916;2023-06-10T04:48:15;987.0;;;19.9;82.0
53940;BME280;39850;43.324;21.916;2023-06-10T04:52:51;987.0;;;19.9;82.0
53940;BME280;39850;43.324;21.916;2023-06-10T04:57:28;987.0;;;19.8;82.0
53940;BME280;39850;43.324;21.916;2023-06-10T05:02:05;987.0;;;19.8;82.0
53940;BME280;39850;43.324;21.916;2023-06-10T05:06:42;987.0;;;19.8;82.0
53940;BME280;39850;43.324;21.916;2023-06-10T05:11:18;987.0;;;19.8;81.0
53940;BME280;39850;43.324;21.916;2023-06-10T05:15:55;987.0;;;19.8;81.0
53940;BME280;39850;43.324;21.916;2023-06-10T05:20:31;987.0;;;19.8;81.0
53940;BME280;39850;43.324;21.916;2023-06-10T05:25:09;987.0;;;19.8;81.0
53940;BME280;39850;43.324;21.916;2023-06-10T05:57:24;987.0;;;19.8;84.0
53940;BME280;39850;43.324;21.916;2023-06-10T06:02:01;987.0;;;19.8;84.0
53940;BME280;39850;43.324;21.916;2023-06-10T06:06:40;987.0;;;19.8;84.0
53940;BME280;39850;43.324;21.916;2023-06-10T06:11:17;987.0;;;20.6;82.0
53940;BME280;39850;43.324;21.916;2023-06-10T06:15:53;987.0;;;20.6;82.0
53940;BME280;39850;43.324;21.916;2023-06-10T06:20:30;987.0;;;21.3;81.0
53940;BME280;39850;43.324;21.916;2023-06-10T06:25:08;987.0;;;21.3;81.0
53940;BME280;39850;43.324;21.916;2023-06-10T06:29:45;987.0;;;21.8;78.0
53940;BME280;39850;43.324;21.916;2023-06-10T06:34:22;987.0;;;21.8;78.0
53940;BME280;39850;43.324;21.916;2023-06-10T06:38:58;987.0;;;22.4;76.0
53940;BME280;39850;43.324;21.916;2023-06-10T06:43:35;987.0;;;22.4;76.0
53940;BME280;39850;43.324;21.916;2023-06-10T07:20:32;987.0;;;22.9;70.0
53940;BME280;39850;43.324;21.916;2023-06-10T07:25:09;987.0;;;22.9;70.0
53940;BME280;39850;43.324;21.916;2023-06-10T07:29:46;987.0;;;23.6;67.0
53940;BME280;39850;43.324;21.916;2023-06-10T07:34:22;987.0;;;23.6;67.0
53940;BME280;39850;43.324;21.916;2023-06-10T07:38:59;987.0;;;24.0;64.0
53940;BME280;39850;43.324;21.916;2023-06-10T07:43:37;987.0;;;24.0;64.0
53940;BME280;39850;43.324;21.916;2023-06-10T07:48:14;987.0;;;24.2;64.0
53940;BME280;39850;43.324;21.916;2023-06-10T07:52:50;987.0;;;24.2;64.0
53940;BME280;39850;43.324;21.916;2023-06-10T07:57:27;987.0;;;24.2;64.0
53940;BME280;39850;43.324;21.916;2023-06-10T08:02:05;987.0;;;24.0;63.0
53940;BME280;39850;43.324;21.916;2023-06-10T08:06:42;987.0;;;24.0;63.0
53940;BME280;39850;43.324;21.916;2023-06-10T08:38:59;987.0;;;26.0;57.0
53940;BME280;39850;43.324;21.916;2023-06-10T08:44:09;987.0;;;26.0;57.0
53940;BME280;39850;43.324;21.916;2023-06-10T08:49:06;987.0;;;25.6;57.0
53940;BME280;39850;43.324;21.916;2023-06-10T08:54:11;987.0;;;25.6;57.0
53940;BME280;39850;43.324;21.916;2023-06-10T08:59:01;987.0;;;25.3;57.0
53940;BME280;39850;43.324;21.916;2023-06-10T09:03:43;987.0;;;25.3;57.0
53940;BME280;39850;43.324;21.916;2023-06-10T09:08:21;987.0;;;25.1;59.0
53940;BME280;39850;43.324;21.916;2023-06-10T09:12:58;987.0;;;25.1;59.0
53940;BME280;39850;43.324;21.916;2023-06-10T09:17:36;987.0;;;25.1;59.0
53940;BME280;39850;43.324;21.916;2023-06-10T09:22:13;987.0;;;24.9;61.0
53940;BME280;39850;43.324;21.916;2023-06-10T09:26:50;987.0;;;24.9;61.0
53940;BME280;39850;43.324;21.916;2023-06-10T09:59:42;986.0;;;24.7;61.0
53940;BME280;39850;43.324;21.916;2023-06-10T10:04:25;986.0;;;24.7;61.0
53940;BME280;39850;43.324;21.916;2023-06-10T10:09:02;986.0;;;25.0;61.0
53940;BME280;39850;43.324;21.916;2023-06-10T10:13:43;986.0;;;25.0;61.0
53940;BME280;39850;43.324;21.916;2023-06-10T10:18:35;986.0;;;25.4;60.0
53940;BME280;39850;43.324;21.916;2023-06-10T10:24:01;986.0;;;25.4;60.0
53940;BME280;39850;43.324;21.916;2023-06-10T10:29:23;986.0;;;25.8;59.0
53940;BME280;39850;43.324;21.916;2023-06-10T10:34:16;986.0;;;25.8;59.0
53940;BME280;39850;43.324;21.916;2023-06-10T10:38:57;986.0;;;26.1;58.0
53940;BME280;39850;43.324;21.916;2023-06-10T10:43:36;986.0;;;26.1;58.0
53940;BME280;39850;43.324;21.916;2023-06-10T11:21:18;986.0;;;23.8;64.0
53940;BME280;39850;43.324;21.916;2023-06-10T11:26:31;986.0;;;23.8;64.0
53940;BME280;39850;43.324;21.916;2023-06-10T11:31:22;986.0;;;23.6;64.0
53940;BME280;39850;43.324;21.916;2023-06-10T11:36:00;986.0;;;23.6;64.0
53940;BME280;39850;43.324;21.916;2023-06-10T11:40:39;986.0;;;23.6;64.0
53940;BME280;39850;43.324;21.916;2023-06-10T11:45:17;986.0;;;23.6;64.0
53940;BME280;39850;43.324;21.916;2023-06-10T11:49:58;986.0;;;23.5;63.0
53940;BME280;39850;43.324;21.916;2023-06-10T11:54:35;986.0;;;23.5;63.0
53940;BME280;39850;43.324;21.916;2023-06-10T12:41:29;985.0;;;23.7;59.0
53940;BME280;39850;43.324;21.916;2023-06-10T12:46:11;985.0;;;23.7;59.0
53940;BME280;39850;43.324;21.916;2023-06-10T12:50:58;985.0;;;24.0;59.0
53940;BME280;39850;43.324;21.916;2023-06-10T12:55:35;985.0;;;24.0;59.0
53940;BME280;39850;43.324;21.916;2023-06-10T13:00:17;985.0;;;24.2;58.0
53940;BME280;39850;43.324;21.916;2023-06-10T13:04:54;985.0;;;24.2;58.0
53940;BME280;39850;43.324;21.916;2023-06-10T13:09:30;985.0;;;24.3;56.0
53940;BME280;39850;43.324;21.916;2023-06-10T13:14:07;985.0;;;24.3;56.0
53940;BME280;39850;43.324;21.916;2023-06-10T13:18:43;985.0;;;24.4;55.0
53940;BME280;39850;43.324;21.916;2023-06-10T13:23:19;985.0;;;24.4;55.0
53940;BME280;39850;43.324;21.916;2023-06-10T13:27:55;985.0;;;24.4;55.0
53940;BME280;39850;43.324;21.916;2023-06-10T14:00:15;985.0;;;25.1;52.0
53940;BME280;39850;43.324;21.916;2023-06-10T14:04:52;985.0;;;25.1;52.0
53940;BME280;39850;43.324;21.916;2023-06-10T14:09:29;985.0;;;25.3;52.0
53940;BME280;39850;43.324;21.916;2023-06-10T14:14:05;985.0;;;25.3;52.0
53940;BME280;39850;43.324;21.916;2023-06-10T14:18:42;985.0;;;25.3;52.0
53940;BME280;39850;43.324;21.916;2023-06-10T14:23:19;985.0;;;25.1;52.0
53940;BME280;39850;43.324;21.916;2023-06-10T14:27:55;985.0;;;25.1;52.0
53940;BME280;39850;43.324;21.916;2023-06-10T14:32:32;985.0;;;25.0;53.0
53940;BME280;39850;43.324;21.916;2023-06-10T14:37:09;985.0;;;25.0;53.0
53940;BME280;39850;43.324;21.916;2023-06-10T14:41:45;985.0;;;24.5;54.0
53940;BME280;39850;43.324;21.916;2023-06-10T14:46:23;985.0;;;24.5;54.0
53940;BME280;39850;43.324;21.916;2023-06-10T15:23:19;984.0;;;23.5;61.0
53940;BME280;39850;43.324;21.916;2023-06-10T15:27:56;984.0;;;23.5;61.0
53940;BME280;39850;43.324;21.916;2023-06-10T15:32:33;984.0;;;23.5;61.0
53940;BME280;39850;43.324;21.916;2023-06-10T15:37:09;984.0;;;23.5;61.0
53940;BME280;39850;43.324;21.916;2023-06-10T15:41:46;984.0;;;23.5;61.0
53940;BME280;39850;43.324;21.916;2023-06-10T15:46:23;984.0;;;23.5;61.0
53940;BME280;39850;43.324;21.916;2023-06-10T15:51:00;984.0;;;23.5;61.0
53940;BME280;39850;43.324;21.916;2023-06-10T15:55:36;984.0;;;23.5;61.0
53940;BME280;39850;43.324;21.916;2023-06-10T16:00:17;984.0;;;23.5;61.0
53940;BME280;39850;43.324;21.916;2023-06-10T16:04:54;984.0;;;23.5;61.0
53940;BME280;39850;43.324;21.916;2023-06-10T16:41:47;985.0;;;22.8;62.0
53940;BME280;39850;43.324;21.916;2023-06-10T16:46:24;985.0;;;22.8;62.0
53940;BME280;39850;43.324;21.916;2023-06-10T16:51:00;985.0;;;22.8;62.0
53940;BME280;39850;43.324;21.916;2023-06-10T16:55:37;985.0;;;22.8;62.0
53940;BME280;39850;43.324;21.916;2023-06-10T17:00:17;985.0;;;22.8;63.0
53940;BME280;39850;43.324;21.916;2023-06-10T17:04:54;985.0;;;22.8;63.0
53940;BME280;39850;43.324;21.916;2023-06-10T17:09:31;985.0;;;22.8;63.0
53940;BME280;39850;43.324;21.916;2023-06-10T17:14:08;985.0;;;22.8;63.0
53940;BME280;39850;43.324;21.916;2023-06-10T17:18:45;985.0;;;22.8;63.0
53940;BME280;39850;43.324;21.916;2023-06-10T17:23:22;985.0;;;22.6;64.0
53940;BME280;39850;43.324;21.916;2023-06-10T17:27:59;985.0;;;22.6;64.0
53940;BME280;39850;43.324;21.916;2023-06-10T18:14:07;985.0;;;21.8;75.0
53940;BME280;39850;43.324;21.916;2023-06-10T18:18:44;985.0;;;21.8;75.0
53940;BME280;39850;43.324;21.916;2023-06-10T18:23:21;985.0;;;21.6;75.0
53940;BME280;39850;43.324;21.916;2023-06-10T18:27:57;985.0;;;21.6;75.0
53940;BME280;39850;43.324;21.916;2023-06-10T18:32:34;985.0;;;21.6;75.0
53940;BME280;39850;43.324;21.916;2023-06-10T18:37:11;985.0;;;21.6;75.0
53940;BME280;39850;43.324;21.916;2023-06-10T18:41:47;985.0;;;21.3;75.0
53940;BME280;39850;43.324;21.916;2023-06-10T18:46:23;985.0;;;21.3;75.0
53940;BME280;39850;43.324;21.916;2023-06-10T19:23:18;986.0;;;20.8;77.0
53940;BME280;39850;43.324;21.916;2023-06-10T19:27:55;986.0;;;20.8;77.0
53940;BME280;39850;43.324;21.916;2023-06-10T19:32:31;986.0;;;20.8;78.0
53940;BME280;39850;43.324;21.916;2023-06-10T19:37:08;986.0;;;20.8;78.0
53940;BME280;39850;43.324;21.916;2023-06-10T19:41:45;986.0;;;20.8;78.0
53940;BME280;39850;43.324;21.916;2023-06-10T19:46:22;986.0;;;20.8;78.0
53940;BME280;39850;43.324;21.916;2023-06-10T19:50:58;986.0;;;20.7;80.0
53940;BME280;39850;43.324;21.916;2023-06-10T19:55:35;986.0;;;20.7;80.0
53940;BME280;39850;43.324;21.916;2023-06-10T20:00:16;986.0;;;20.6;82.0
53940;BME280;39850;43.324;21.916;2023-06-10T20:04:53;986.0;;;20.6;82.0
53940;BME280;39850;43.324;21.916;2023-06-10T20:09:30;986.0;;;20.6;82.0
53940;BME280;39850;43.324;21.916;2023-06-10T20:41:46;986.0;;;20.0;82.0
53940;BME280;39850;43.324;21.916;2023-06-10T20:46:22;986.0;;;20.0;82.0
53940;BME280;39850;43.324;21.916;2023-06-10T20:50:59;986.0;;;19.5;83.0
53940;BME280;39850;43.324;21.916;2023-06-10T20:55:35;986.0;;;19.5;83.0
53940;BME280;39850;43.324;21.916;2023-06-10T21:00:15;986.0;;;19.5;83.0
53940;BME280;39850;43.324;21.916;2023-06-10T21:04:51;986.0;;;19.0;84.0
53940;BME280;39850;43.324;21.916;2023-06-10T21:09:28;986.0;;;19.0;84.0
53940;BME280;39850;43.324;21.916;2023-06-10T21:14:04;986.0;;;19.0;85.0
53940;BME280;39850;43.324;21.916;2023-06-10T21:18:41;986.0;;;19.0;85.0
53940;BME280;39850;43.324;21.916;2023-06-10T21:23:17;986.0;;;18.9;85.0
53940;BME280;39850;43.324;21.916;2023-06-10T21:27:54;986.0;;;18.9;85.0
53940;BME280;39850;43.324;21.916;2023-06-10T22:04:51;986.0;;;19.0;84.0
53940;BME280;39850;43.324;21.916;2023-06-10T22:09:28;986.0;;;19.0;84.0
53940;BME280;39850;43.324;21.916;2023-06-10T22:14:07;986.0;;;18.8;84.0
53940;BME280;39850;43.324;21.916;2023-06-10T22:18:43;986.0;;;18.8;84.0
53940;BME280;39850;43.324;21.916;2023-06-10T22:23:22;986.0;;;18.7;85.0
53940;BME280;39850;43.324;21.916;2023-06-10T22:27:59;986.0;;;18.7;85.0
53940;BME280;39850;43.324;21.916;2023-06-10T22:32:35;986.0;;;18.4;86.0
53940;BME280;39850;43.324;21.916;2023-06-10T22:37:12;986.0;;;18.4;86.0
53940;BME280;39850;43.324;21.916;2023-06-10T22:41:49;986.0;;;18.0;86.0
53940;BME280;39850;43.324;21.916;2023-06-10T22:46:26;986.0;;;18.0;86.0
53940;BME280;39850;43.324;21.916;2023-06-10T23:23:20;986.0;;;18.2;88.0
53940;BME280;39850;43.324;21.916;2023-06-10T23:27:57;986.0;;;18.2;88.0
53940;BME280;39850;43.324;21.916;2023-06-10T23:32:33;986.0;;;18.2;88.0
53940;BME280;39850;43.324;21.916;2023-06-10T23:37:09;986.0;;;18.2;88.0
53940;BME280;39850;43.324;21.916;2023-06-10T23:41:46;986.0;;;17.6;88.0
53940;BME280;39850;43.324;21.916;2023-06-10T23:46:22;986.0;;;17.6;88.0
53940;BME280;39850;43.324;21.916;2023-06-10T23:50:59;986.0;;;17.1;89.0
53940;BME280;39850;43.324;21.916;2023-06-10T23:55:35;986.0;;;17.1;89.0
